createdAt,value
2017-12-25T00:00:48.731Z,0
2017-12-25T00:01:17.489Z,0
2017-12-25T00:02:28.800Z,0
2017-12-25T00:03:56.832Z,0
2017-12-25T00:04:25.548Z,0
2017-12-25T00:06:54.844Z,0
2017-12-25T00:08:26.877Z,0
2017-12-25T00:08:55.113Z,0
2017-12-25T00:09:23.148Z,0
2017-12-25T00:10:21.761Z,0
2017-12-25T00:12:45.154Z,0
2017-12-25T00:13:28.239Z,0
2017-12-25T00:13:56.473Z,0
2017-12-25T00:14:25.323Z,0
2017-12-25T00:14:55.323Z,0
2017-12-25T00:15:23.334Z,0
2017-12-25T00:16:20.807Z,0
2017-12-25T00:16:49.314Z,0
2017-12-25T00:18:02.822Z,0
2017-12-25T00:19:44.858Z,0
2017-12-25T00:20:13.323Z,0
2017-12-25T00:20:55.856Z,0
2017-12-25T00:21:24.311Z,0
2017-12-25T00:21:53.948Z,0
2017-12-25T00:22:22.406Z,0
2017-12-25T00:22:55.468Z,0
2017-12-25T00:23:38.577Z,0
2017-12-25T00:24:07.869Z,0
2017-12-25T00:24:37.156Z,0
2017-12-25T00:25:06.024Z,0
2017-12-25T00:25:35.580Z,0
2017-12-25T00:26:04.945Z,0
2017-12-25T00:26:34.651Z,0
2017-12-25T00:28:07.591Z,0
2017-12-25T00:28:37.336Z,0
2017-12-25T00:29:05.260Z,0
2017-12-25T00:31:28.884Z,0
2017-12-25T00:31:56.906Z,0
2017-12-25T00:32:24.935Z,0
2017-12-25T00:33:51.744Z,0
2017-12-25T00:34:20.098Z,0
2017-12-25T00:34:48.738Z,0
2017-12-25T00:35:16.694Z,0
2017-12-25T00:35:46.660Z,0
2017-12-25T00:36:14.583Z,0
2017-12-25T00:36:42.997Z,0
2017-12-25T00:37:26.749Z,0
2017-12-25T00:38:38.756Z,0
2017-12-25T00:39:09.617Z,0
2017-12-25T00:39:39.171Z,0
2017-12-25T00:40:07.194Z,0
2017-12-25T00:42:01.775Z,0
2017-12-25T00:42:30.594Z,0
2017-12-25T00:42:59.732Z,0
2017-12-25T00:43:28.904Z,0
2017-12-25T00:44:11.769Z,0
2017-12-25T00:44:39.783Z,0
2017-12-25T00:45:08.022Z,0
2017-12-25T00:45:36.474Z,0
2017-12-25T00:46:20.634Z,0
2017-12-25T00:46:50.492Z,0
2017-12-25T00:47:34.277Z,0
2017-12-25T00:48:46.265Z,0
2017-12-25T00:49:29.705Z,0
2017-12-25T00:50:26.764Z,0
2017-12-25T00:51:11.149Z,0
2017-12-25T00:52:08.461Z,0
2017-12-25T00:52:51.430Z,0
2017-12-25T00:53:48.499Z,0
2017-12-25T00:54:18.836Z,0
2017-12-25T00:55:16.232Z,0
2017-12-25T00:55:44.672Z,0
2017-12-25T00:56:12.906Z,0
2017-12-25T00:56:41.550Z,0
2017-12-25T00:57:10.198Z,0
2017-12-25T00:57:38.211Z,0
2017-12-25T00:58:07.508Z,0
2017-12-25T00:59:05.134Z,0
2017-12-25T01:00:16.738Z,0
2017-12-25T01:01:00.289Z,0
2017-12-25T01:02:11.876Z,0
2017-12-25T01:04:36.512Z,0
2017-12-25T01:05:19.641Z,0
2017-12-25T01:07:15.161Z,0
2017-12-25T01:07:47.039Z,0
2017-12-25T01:09:00.964Z,0
2017-12-25T01:09:31.105Z,0
2017-12-25T01:10:43.493Z,0
2017-12-25T01:11:26.226Z,0
2017-12-25T01:12:10.574Z,0
2017-12-25T01:12:54.141Z,0
2017-12-25T01:14:08.445Z,0
2017-12-25T01:15:49.752Z,0
2017-12-25T01:17:17.270Z,0
2017-12-25T01:18:15.453Z,0
2017-12-25T01:19:13.534Z,0
2017-12-25T01:21:10.498Z,0
2017-12-25T01:21:53.806Z,0
2017-12-25T01:22:23.818Z,0
2017-12-25T01:22:52.477Z,0
2017-12-25T01:23:21.822Z,0
2017-12-25T01:25:17.096Z,0
2017-12-25T01:26:01.610Z,0
2017-12-25T01:26:59.212Z,0
2017-12-25T01:28:39.291Z,0
2017-12-25T01:29:07.326Z,0
2017-12-25T01:31:02.310Z,0
2017-12-25T01:31:45.642Z,0
2017-12-25T01:32:44.662Z,0
2017-12-25T01:35:37.573Z,0
2017-12-25T01:37:18.953Z,0
2017-12-25T01:38:16.252Z,0
2017-12-25T01:39:18.372Z,0
2017-12-25T01:43:23.515Z,0
2017-12-25T01:44:22.040Z,0
2017-12-25T01:45:34.475Z,0
2017-12-25T01:46:46.331Z,0
2017-12-25T01:47:43.615Z,0
2017-12-25T01:59:38.741Z,0
2017-12-25T02:00:50.347Z,0
2017-12-25T02:02:18.434Z,0
2017-12-25T02:03:01.024Z,0
2017-12-25T02:06:22.405Z,0
2017-12-25T02:09:43.086Z,0
2017-12-25T02:12:53.723Z,0
2017-12-25T02:14:33.937Z,0
2017-12-25T02:17:28.830Z,0
2017-12-25T02:18:54.948Z,0
2017-12-25T02:19:52.380Z,0
2017-12-25T02:20:49.662Z,0
2017-12-25T02:23:15.366Z,0
2017-12-25T02:24:13.559Z,0
2017-12-25T02:29:15.581Z,0
2017-12-25T02:29:46.633Z,0
2017-12-25T02:30:43.709Z,0
2017-12-25T02:31:42.618Z,0
2017-12-25T02:34:33.795Z,0
2017-12-25T02:35:02.130Z,0
2017-12-25T02:36:57.483Z,0
2017-12-25T02:37:40.549Z,0
2017-12-25T02:38:52.148Z,0
2017-12-25T02:39:34.728Z,0
2017-12-25T02:41:00.850Z,0
2017-12-25T02:42:55.047Z,0
2017-12-25T02:44:21.173Z,0
2017-12-25T02:48:25.766Z,0
2017-12-25T02:49:23.245Z,0
2017-12-25T02:50:20.535Z,0
2017-12-25T02:51:18.016Z,0
2017-12-25T02:52:00.794Z,0
2017-12-25T02:54:10.265Z,0
2017-12-25T02:55:52.415Z,0
2017-12-25T02:59:28.900Z,0
2017-12-25T03:00:11.773Z,0
2017-12-25T03:00:54.656Z,0
2017-12-25T03:02:49.835Z,0
2017-12-25T03:05:13.175Z,0
2017-12-25T03:06:25.555Z,0
2017-12-25T03:07:08.730Z,0
2017-12-25T03:07:38.319Z,0
2017-12-25T03:08:07.288Z,0
2017-12-25T03:09:32.349Z,0
2017-12-25T03:10:16.105Z,0
2017-12-25T03:10:44.865Z,0
2017-12-25T03:11:58.468Z,0
2017-12-25T03:12:28.034Z,0
2017-12-25T03:12:56.498Z,0
2017-12-25T03:13:53.966Z,0
2017-12-25T03:14:22.780Z,0
2017-12-25T03:14:51.555Z,0
2017-12-25T03:15:49.053Z,0
2017-12-25T03:16:16.994Z,0
2017-12-25T03:17:57.123Z,0
2017-12-25T03:18:40.970Z,0
2017-12-25T03:19:52.984Z,0
2017-12-25T03:20:36.268Z,0
2017-12-25T03:21:05.314Z,0
2017-12-25T03:22:59.480Z,0
2017-12-25T03:23:28.119Z,0
2017-12-25T03:24:10.655Z,0
2017-12-25T03:24:39.718Z,0
2017-12-25T03:26:49.728Z,0
2017-12-25T03:29:56.680Z,0
2017-12-25T03:31:23.976Z,0
2017-12-25T03:34:45.533Z,0
2017-12-25T03:36:25.481Z,0
2017-12-25T03:36:54.223Z,0
2017-12-25T03:40:44.690Z,0
2017-12-25T03:41:27.547Z,0
2017-12-25T03:42:25.141Z,0
2017-12-25T03:42:53.917Z,0
2017-12-25T03:43:23.741Z,0
2017-12-25T03:46:18.002Z,0
2017-12-25T03:49:10.883Z,0
2017-12-25T03:50:36.988Z,0
2017-12-25T03:52:03.439Z,0
2017-12-25T03:55:39.246Z,0
2017-12-25T03:56:36.316Z,0
2017-12-25T03:59:05.430Z,0
2017-12-25T03:59:48.408Z,0
2017-12-25T04:00:30.970Z,0
2017-12-25T04:02:25.633Z,0
2017-12-25T04:05:04.195Z,0
2017-12-25T04:06:58.900Z,0
2017-12-25T04:08:11.281Z,0
2017-12-25T04:09:09.654Z,0
2017-12-25T04:10:06.747Z,0
2017-12-25T04:11:04.041Z,0
2017-12-25T04:14:53.940Z,0
2017-12-25T04:18:59.499Z,0
2017-12-25T04:19:56.804Z,0
2017-12-25T04:20:39.794Z,0
2017-12-25T04:24:30.114Z,0
2017-12-25T04:24:58.980Z,0
2017-12-25T04:27:08.619Z,0
2017-12-25T04:28:56.332Z,0
2017-12-25T04:30:08.858Z,0
2017-12-25T04:30:57.437Z,0
2017-12-25T04:33:35.015Z,0
2017-12-25T04:34:33.241Z,0
2017-12-25T04:35:15.697Z,0
2017-12-25T04:36:00.791Z,0
2017-12-25T04:36:30.435Z,0
2017-12-25T04:37:56.558Z,0
2017-12-25T04:39:36.390Z,0
2017-12-25T04:42:14.662Z,0
2017-12-25T04:43:57.073Z,0
2017-12-25T04:44:54.635Z,0
2017-12-25T04:46:06.628Z,0
2017-12-25T04:47:03.611Z,0
2017-12-25T04:48:02.364Z,0
2017-12-25T04:49:00.206Z,0
2017-12-25T04:49:57.281Z,0
2017-12-25T04:51:41.952Z,0
2017-12-25T04:53:52.005Z,0
2017-12-25T04:54:49.920Z,0
2017-12-25T04:56:48.157Z,0
2017-12-25T04:57:45.880Z,0
2017-12-25T05:00:38.183Z,0
2017-12-25T05:01:35.884Z,0
2017-12-25T05:03:16.272Z,0
2017-12-25T05:10:33.637Z,0
2017-12-25T05:11:45.824Z,0
2017-12-25T05:13:27.389Z,0
2017-12-25T05:14:11.754Z,0
2017-12-25T05:15:51.915Z,0
2017-12-25T05:17:04.086Z,0
2017-12-25T05:20:56.683Z,0
2017-12-25T05:22:50.752Z,0
2017-12-25T05:25:01.298Z,0
2017-12-25T05:28:10.292Z,0
2017-12-25T05:30:23.684Z,0
2017-12-25T05:32:21.415Z,0
2017-12-25T05:36:25.189Z,0
2017-12-25T05:38:17.020Z,0
2017-12-25T05:38:45.832Z,0
2017-12-25T05:39:15.220Z,0
2017-12-25T05:40:26.734Z,0
2017-12-25T05:46:02.551Z,0
2017-12-25T05:48:04.469Z,0
2017-12-25T05:51:55.279Z,0
2017-12-25T05:52:54.574Z,0
2017-12-25T05:55:58.030Z,0
2017-12-25T05:56:41.095Z,0
2017-12-25T05:58:21.069Z,0
2017-12-25T05:59:09.037Z,0
2017-12-25T05:59:38.256Z,0
2017-12-25T06:00:35.226Z,0
2017-12-25T06:01:24.902Z,0
2017-12-25T06:02:36.703Z,0
2017-12-25T06:04:19.403Z,0
2017-12-25T06:05:17.288Z,0
2017-12-25T06:07:28.457Z,0
2017-12-25T06:08:25.422Z,0
2017-12-25T06:09:37.017Z,0
2017-12-25T06:10:48.629Z,0
2017-12-25T06:12:00.519Z,0
2017-12-25T06:15:39.541Z,0
2017-12-25T06:17:35.350Z,0
2017-12-25T06:18:18.677Z,0
2017-12-25T06:19:45.733Z,0
2017-12-25T06:20:15.148Z,0
2017-12-25T06:23:52.992Z,0
2017-12-25T06:27:00.929Z,0
2017-12-25T06:28:43.922Z,0
2017-12-25T06:30:27.543Z,0
2017-12-25T06:33:19.991Z,0
2017-12-25T06:35:29.329Z,0
2017-12-25T06:36:57.263Z,0
2017-12-25T06:38:08.855Z,0
2017-12-25T06:39:20.786Z,0
2017-12-25T06:40:18.301Z,0
2017-12-25T06:41:16.217Z,0
2017-12-25T06:42:29.165Z,0
2017-12-25T06:43:26.756Z,0
2017-12-25T06:43:56.885Z,0
2017-12-25T06:45:51.818Z,0
2017-12-25T06:48:43.461Z,0
2017-12-25T06:50:38.129Z,0
2017-12-25T06:51:21.725Z,0
2017-12-25T06:54:30.433Z,0
2017-12-25T06:57:23.573Z,0
2017-12-25T06:59:05.024Z,0
2017-12-25T07:00:59.808Z,0
2017-12-25T07:02:11.421Z,0
2017-12-25T07:04:07.058Z,0
2017-12-25T07:07:25.350Z,0
2017-12-25T07:08:09.326Z,0
2017-12-25T07:08:51.856Z,0
2017-12-25T07:10:03.473Z,0
2017-12-25T07:10:47.450Z,0
2017-12-25T07:11:17.037Z,0
2017-12-25T07:12:01.026Z,0
2017-12-25T07:12:30.024Z,0
2017-12-25T07:12:59.092Z,0
2017-12-25T07:13:29.095Z,0
2017-12-25T07:14:14.015Z,0
2017-12-25T07:15:07.629Z,0
2017-12-25T07:15:37.064Z,0
2017-12-25T07:16:05.866Z,0
2017-12-25T07:17:03.332Z,0
2017-12-25T07:18:01.710Z,0
2017-12-25T07:18:32.042Z,0
2017-12-25T07:19:47.470Z,0
2017-12-25T07:20:17.103Z,0
2017-12-25T07:20:46.067Z,0
2017-12-25T07:21:29.324Z,0
2017-12-25T07:21:57.643Z,0
2017-12-25T07:22:40.688Z,0
2017-12-25T07:23:08.775Z,0
2017-12-25T07:25:17.828Z,0
2017-12-25T07:26:30.345Z,0
2017-12-25T07:27:13.696Z,0
2017-12-25T07:27:42.248Z,0
2017-12-25T07:28:52.855Z,0
2017-12-25T07:29:23.913Z,0
2017-12-25T07:30:23.262Z,0
2017-12-25T07:30:51.789Z,0
2017-12-25T07:31:20.499Z,0
2017-12-25T07:31:49.386Z,0
2017-12-25T07:32:32.724Z,0
2017-12-25T07:33:15.976Z,0
2017-12-25T07:33:44.418Z,0
2017-12-25T07:34:12.847Z,0
2017-12-25T07:34:41.273Z,0
2017-12-25T07:35:09.847Z,0
2017-12-25T07:35:38.801Z,0
2017-12-25T07:36:07.782Z,0
2017-12-25T07:36:36.026Z,0
2017-12-25T07:37:05.944Z,0
2017-12-25T07:37:39.321Z,0
2017-12-25T07:38:21.849Z,0
2017-12-25T07:39:05.140Z,0
2017-12-25T07:39:33.937Z,0
2017-12-25T07:40:02.941Z,0
2017-12-25T07:40:33.174Z,0
2017-12-25T07:42:02.225Z,0
2017-12-25T07:42:45.567Z,0
2017-12-25T07:44:08.784Z,0
2017-12-25T07:45:43.256Z,0
2017-12-25T07:46:26.986Z,0
2017-12-25T07:46:56.441Z,0
2017-12-25T07:47:24.885Z,0
2017-12-25T07:47:52.909Z,0
2017-12-25T07:48:21.427Z,0
2017-12-25T07:48:50.171Z,0
2017-12-25T07:49:19.401Z,0
2017-12-25T07:49:47.629Z,0
2017-12-25T07:50:15.565Z,0
2017-12-25T07:50:58.335Z,0
2017-12-25T07:51:27.628Z,0
2017-12-25T07:51:58.950Z,0
2017-12-25T07:52:28.947Z,0
2017-12-25T07:53:13.897Z,0
2017-12-25T07:53:57.650Z,0
2017-12-25T07:54:40.208Z,0
2017-12-25T07:55:21.413Z,0
2017-12-25T07:57:17.655Z,0
2017-12-25T07:57:47.319Z,0
2017-12-25T07:58:15.894Z,0
2017-12-25T07:58:59.518Z,0
2017-12-25T07:59:27.962Z,0
2017-12-25T08:00:11.285Z,0
2017-12-25T08:00:40.040Z,0
2017-12-25T08:01:07.978Z,0
2017-12-25T08:02:07.290Z,0
2017-12-25T08:02:38.591Z,0
2017-12-25T08:03:08.836Z,0
2017-12-25T08:03:36.893Z,0
2017-12-25T08:04:20.202Z,0
2017-12-25T08:05:04.573Z,0
2017-12-25T08:06:30.507Z,0
2017-12-25T08:07:13.792Z,0
2017-12-25T08:08:40.907Z,0
2017-12-25T08:09:09.591Z,0
2017-12-25T08:09:38.396Z,0
2017-12-25T08:10:07.063Z,0
2017-12-25T08:10:52.661Z,0
2017-12-25T08:11:33.875Z,0
2017-12-25T08:12:02.420Z,0
2017-12-25T08:12:48.746Z,5
2017-12-25T08:13:17.800Z,5
2017-12-25T08:14:00.776Z,5
2017-12-25T08:14:29.578Z,5
2017-12-25T08:14:58.425Z,5
2017-12-25T08:15:26.427Z,5
2017-12-25T08:15:55.263Z,5
2017-12-25T08:16:23.273Z,5
2017-12-25T08:17:06.611Z,10
2017-12-25T08:17:35.847Z,10
2017-12-25T08:18:03.883Z,10
2017-12-25T08:18:48.440Z,10
2017-12-25T08:19:17.679Z,10
2017-12-25T08:19:45.705Z,10
2017-12-25T08:20:14.783Z,10
2017-12-25T08:20:43.221Z,15
2017-12-25T08:21:12.223Z,15
2017-12-25T08:21:40.639Z,15
2017-12-25T08:22:23.203Z,15
2017-12-25T08:22:51.212Z,15
2017-12-25T08:23:34.697Z,20
2017-12-25T08:24:18.392Z,20
2017-12-25T08:24:46.387Z,20
2017-12-25T08:25:14.823Z,20
2017-12-25T08:25:47.467Z,25
2017-12-25T08:26:17.884Z,25
2017-12-25T08:27:02.210Z,25
2017-12-25T08:27:31.237Z,30
2017-12-25T08:27:59.772Z,30
2017-12-25T08:28:43.007Z,30
2017-12-25T08:29:11.859Z,35
2017-12-25T08:30:09.737Z,35
2017-12-25T08:31:06.786Z,40
2017-12-25T08:31:37.612Z,40
2017-12-25T08:32:06.922Z,45
2017-12-25T08:33:20.946Z,50
2017-12-25T08:34:04.404Z,50
2017-12-25T08:34:34.853Z,55
2017-12-25T08:35:03.798Z,55
2017-12-25T08:35:32.558Z,55
2017-12-25T08:36:01.574Z,60
2017-12-25T08:36:29.805Z,60
2017-12-25T08:36:57.832Z,65
2017-12-25T08:37:55.120Z,65
2017-12-25T08:39:13.109Z,70
2017-12-25T08:39:41.579Z,75
2017-12-25T08:40:25.446Z,75
2017-12-25T08:41:07.906Z,80
2017-12-25T08:41:36.675Z,80
2017-12-25T08:42:04.703Z,80
2017-12-25T08:42:37.021Z,85
2017-12-25T08:43:19.473Z,85
2017-12-25T08:43:48.332Z,90
2017-12-25T08:44:16.890Z,90
2017-12-25T08:44:59.938Z,95
2017-12-25T08:45:27.864Z,95
2017-12-25T08:47:09.231Z,100
2017-12-25T08:47:52.200Z,100
2017-12-25T08:49:03.463Z,110
2017-12-25T08:49:32.498Z,115
2017-12-25T08:50:01.352Z,115
2017-12-25T08:50:30.358Z,115
2017-12-25T08:51:28.072Z,115
2017-12-25T08:52:14.004Z,115
2017-12-25T08:52:57.955Z,120
2017-12-25T08:53:41.797Z,120
2017-12-25T08:54:10.628Z,125
2017-12-25T08:54:39.303Z,125
2017-12-25T08:55:22.631Z,125
2017-12-25T08:56:05.976Z,130
2017-12-25T08:57:03.049Z,130
2017-12-25T08:57:31.487Z,135
2017-12-25T08:58:15.282Z,140
2017-12-25T08:58:58.829Z,145
2017-12-25T08:59:28.479Z,145
2017-12-25T09:00:11.660Z,140
2017-12-25T09:00:40.459Z,140
2017-12-25T09:01:52.772Z,145
2017-12-25T09:05:30.227Z,155
2017-12-25T09:06:29.322Z,160
2017-12-25T09:06:57.691Z,165
2017-12-25T09:07:25.709Z,165
2017-12-25T09:08:09.034Z,170
2017-12-25T09:08:37.472Z,170
2017-12-25T09:09:21.389Z,175
2017-12-25T09:09:49.417Z,175
2017-12-25T09:10:46.707Z,180
2017-12-25T09:11:15.136Z,180
2017-12-25T09:11:43.575Z,185
2017-12-25T09:12:12.005Z,185
2017-12-25T09:12:40.852Z,190
2017-12-25T09:13:11.073Z,195
2017-12-25T09:13:40.170Z,210
2017-12-25T09:14:26.877Z,240
2017-12-25T09:14:54.964Z,230
2017-12-25T09:16:07.219Z,235
2017-12-25T09:16:36.191Z,265
2017-12-25T09:17:05.288Z,290
2017-12-25T09:17:48.859Z,295
2017-12-25T09:18:18.076Z,280
2017-12-25T09:19:30.207Z,235
2017-12-25T09:20:01.420Z,225
2017-12-25T09:20:30.397Z,230
2017-12-25T09:21:00.630Z,240
2017-12-25T09:21:28.649Z,250
2017-12-25T09:22:12.183Z,275
2017-12-25T09:22:40.856Z,305
2017-12-25T09:23:10.817Z,325
2017-12-25T09:23:41.357Z,300
2017-12-25T09:24:09.203Z,255
2017-12-25T09:24:39.294Z,245
2017-12-25T09:26:35.024Z,245
2017-12-25T09:27:03.393Z,250
2017-12-25T09:27:36.798Z,250
2017-12-25T09:28:06.024Z,255
2017-12-25T09:29:32.936Z,270
2017-12-25T09:30:16.358Z,280
2017-12-25T09:30:44.990Z,300
2017-12-25T09:31:13.315Z,315
2017-12-25T09:31:41.753Z,325
2017-12-25T09:32:13.361Z,355
2017-12-25T09:32:57.991Z,460
2017-12-25T09:33:26.998Z,435
2017-12-25T09:34:10.654Z,360
2017-12-25T09:34:39.047Z,350
2017-12-25T09:35:08.276Z,355
2017-12-25T09:35:36.500Z,360
2017-12-25T09:37:46.892Z,420
2017-12-25T09:38:15.689Z,405
2017-12-25T09:39:53.367Z,395
2017-12-25T09:41:06.173Z,405
2017-12-25T09:42:08.298Z,415
2017-12-25T09:42:51.374Z,415
2017-12-25T09:45:31.179Z,435
2017-12-25T09:46:14.146Z,445
2017-12-25T09:46:57.921Z,440
2017-12-25T09:47:27.532Z,440
2017-12-25T09:48:17.406Z,440
2017-12-25T09:49:54.713Z,455
2017-12-25T09:50:22.727Z,455
2017-12-25T09:50:51.396Z,460
2017-12-25T09:51:20.664Z,465
2017-12-25T09:52:04.425Z,485
2017-12-25T09:52:47.666Z,490
2017-12-25T09:53:30.709Z,505
2017-12-25T09:54:43.013Z,525
2017-12-25T09:55:26.984Z,510
2017-12-25T09:56:09.537Z,555
2017-12-25T09:56:39.166Z,590
2017-12-25T09:57:07.585Z,595
2017-12-25T09:59:16.260Z,620
2017-12-25T09:59:45.325Z,730
2017-12-25T10:00:14.380Z,730
2017-12-25T10:00:42.292Z,705
2017-12-25T10:02:51.743Z,535
2017-12-25T10:03:39.317Z,505
2017-12-25T10:07:34.991Z,515
2017-12-25T10:08:03.845Z,535
2017-12-25T10:08:33.264Z,595
2017-12-25T10:09:03.405Z,655
2017-12-25T10:09:31.742Z,670
2017-12-25T10:09:59.659Z,645
2017-12-25T10:11:11.268Z,580
2017-12-25T10:11:41.027Z,550
2017-12-25T10:12:09.460Z,545
2017-12-25T10:14:05.139Z,535
2017-12-25T10:14:47.674Z,515
2017-12-25T10:15:16.302Z,510
2017-12-25T10:15:58.835Z,510
2017-12-25T10:16:29.232Z,515
2017-12-25T10:19:07.916Z,470
2017-12-25T10:20:07.038Z,455
2017-12-25T10:20:37.143Z,450
2017-12-25T10:21:20.895Z,445
2017-12-25T10:21:49.311Z,440
2017-12-25T10:22:32.412Z,440
2017-12-25T10:23:00.412Z,445
2017-12-25T10:23:28.842Z,455
2017-12-25T10:23:57.272Z,460
2017-12-25T10:25:25.170Z,460
2017-12-25T10:26:08.154Z,455
2017-12-25T10:27:34.053Z,455
2017-12-25T10:28:02.888Z,450
2017-12-25T10:28:46.746Z,425
2017-12-25T10:29:44.230Z,415
2017-12-25T10:30:55.487Z,395
2017-12-25T10:31:38.557Z,375
2017-12-25T10:35:21.273Z,385
2017-12-25T10:35:50.030Z,380
2017-12-25T10:36:32.900Z,390
2017-12-25T10:37:02.142Z,395
2017-12-25T10:37:31.104Z,410
2017-12-25T10:38:06.053Z,425
2017-12-25T10:38:50.249Z,425
2017-12-25T10:39:20.937Z,430
2017-12-25T10:40:03.816Z,435
2017-12-25T10:40:33.571Z,450
2017-12-25T10:41:06.508Z,460
2017-12-25T10:41:49.285Z,485
2017-12-25T10:42:18.984Z,495
2017-12-25T10:42:47.229Z,505
2017-12-25T10:43:58.202Z,520
2017-12-25T10:44:26.201Z,525
2017-12-25T10:44:56.700Z,525
2017-12-25T10:46:37.469Z,525
2017-12-25T10:47:05.797Z,525
2017-12-25T10:49:14.869Z,530
2017-12-25T10:50:40.712Z,525
2017-12-25T10:53:08.403Z,535
2017-12-25T10:53:52.396Z,545
2017-12-25T10:54:23.464Z,545
2017-12-25T10:54:51.713Z,545
2017-12-25T10:55:52.402Z,550
2017-12-25T10:56:20.445Z,550
2017-12-25T10:56:48.699Z,550
2017-12-25T10:57:21.732Z,550
2017-12-25T10:58:33.506Z,555
2017-12-25T10:59:02.339Z,560
2017-12-25T10:59:31.721Z,570
2017-12-25T11:00:01.101Z,575
2017-12-25T11:01:55.228Z,580
2017-12-25T11:03:52.000Z,580
2017-12-25T11:04:22.234Z,580
2017-12-25T11:06:18.226Z,600
2017-12-25T11:07:15.212Z,620
2017-12-25T11:07:43.234Z,630
2017-12-25T11:08:17.530Z,640
2017-12-25T11:08:47.731Z,650
2017-12-25T11:10:28.987Z,630
2017-12-25T11:10:56.915Z,630
2017-12-25T11:12:37.499Z,595
2017-12-25T11:15:15.281Z,545
2017-12-25T11:15:45.099Z,540
2017-12-25T11:16:29.133Z,535
2017-12-25T11:16:58.839Z,540
2017-12-25T11:17:28.162Z,545
2017-12-25T11:18:25.933Z,570
2017-12-25T11:20:35.830Z,600
2017-12-25T11:21:04.784Z,600
2017-12-25T11:21:34.232Z,595
2017-12-25T11:22:02.251Z,595
2017-12-25T11:23:54.331Z,640
2017-12-25T11:25:51.172Z,725
2017-12-25T11:26:19.790Z,745
2017-12-25T11:26:48.225Z,755
2017-12-25T11:27:24.076Z,770
2017-12-25T11:27:52.868Z,775
2017-12-25T11:28:22.816Z,785
2017-12-25T11:29:05.704Z,795
2017-12-25T11:29:34.541Z,795
2017-12-25T11:30:09.266Z,805
2017-12-25T11:30:37.421Z,820
2017-12-25T11:32:07.668Z,850
2017-12-25T11:34:18.433Z,875
2017-12-25T11:35:12.716Z,880
2017-12-25T11:35:42.232Z,880
2017-12-25T11:36:13.116Z,890
2017-12-25T11:36:41.037Z,900
2017-12-25T11:37:09.379Z,895
2017-12-25T11:37:37.722Z,905
2017-12-25T11:38:50.116Z,915
2017-12-25T11:39:18.814Z,925
2017-12-25T11:39:48.050Z,935
2017-12-25T11:40:15.973Z,955
2017-12-25T11:40:45.781Z,1020
2017-12-25T11:42:56.988Z,1035
2017-12-25T11:43:26.214Z,1035
2017-12-25T11:45:07.549Z,1025
2017-12-25T11:45:37.305Z,1035
2017-12-25T11:46:05.304Z,1040
2017-12-25T11:46:34.248Z,1030
2017-12-25T11:47:03.619Z,1025
2017-12-25T11:47:31.957Z,1020
2017-12-25T11:47:59.801Z,1010
2017-12-25T11:48:28.147Z,1010
2017-12-25T11:48:58.477Z,1015
2017-12-25T11:49:26.909Z,1015
2017-12-25T11:49:56.274Z,1030
2017-12-25T11:50:25.071Z,1040
2017-12-25T11:50:53.559Z,1050
2017-12-25T11:53:02.917Z,1125
2017-12-25T11:53:54.756Z,1150
2017-12-25T11:55:54.764Z,1205
2017-12-25T11:56:38.112Z,1195
2017-12-25T11:59:16.055Z,1155
2017-12-25T12:01:38.495Z,1105
2017-12-25T12:02:06.941Z,1095
2017-12-25T12:02:35.291Z,1060
2017-12-25T12:03:03.343Z,1055
2017-12-25T12:03:33.430Z,1055
2017-12-25T12:04:46.984Z,1055
2017-12-25T12:06:27.953Z,1080
2017-12-25T12:07:14.542Z,1085
2017-12-25T12:08:40.664Z,1015
2017-12-25T12:11:04.881Z,980
2017-12-25T12:11:33.734Z,990
2017-12-25T12:12:01.984Z,1005
2017-12-25T12:12:46.029Z,1020
2017-12-25T12:13:30.259Z,1075
2017-12-25T12:13:58.592Z,1125
2017-12-25T12:14:46.198Z,1305
2017-12-25T12:15:15.442Z,1300
2017-12-25T12:15:58.222Z,1265
2017-12-25T12:16:26.642Z,1265
2017-12-25T12:16:55.018Z,1245
2017-12-25T12:17:22.883Z,1270
2017-12-25T12:20:00.472Z,1105
2017-12-25T12:20:43.847Z,1130
2017-12-25T12:21:12.809Z,1145
2017-12-25T12:21:41.657Z,1155
2017-12-25T12:22:10.090Z,1155
2017-12-25T12:23:07.487Z,1285
2017-12-25T12:24:19.619Z,1275
2017-12-25T12:24:48.654Z,1015
2017-12-25T12:25:32.047Z,910
2017-12-25T12:26:41.677Z,865
2017-12-25T12:27:40.326Z,895
2017-12-25T12:28:08.353Z,925
2017-12-25T12:30:55.795Z,860
2017-12-25T12:31:25.581Z,810
2017-12-25T12:33:34.967Z,680
2017-12-25T12:34:03.013Z,650
2017-12-25T12:34:30.963Z,630
2017-12-25T12:35:25.175Z,620
2017-12-25T12:35:53.086Z,630
2017-12-25T12:36:22.830Z,635
2017-12-25T12:36:52.410Z,660
2017-12-25T12:37:22.718Z,685
2017-12-25T12:37:52.289Z,725
2017-12-25T12:38:21.609Z,755
2017-12-25T12:38:50.861Z,790
2017-12-25T12:39:19.605Z,825
2017-12-25T12:41:15.307Z,955
2017-12-25T12:41:58.224Z,1005
2017-12-25T12:42:26.210Z,1025
2017-12-25T12:43:25.309Z,1035
2017-12-25T12:43:54.254Z,1030
2017-12-25T12:45:05.673Z,990
2017-12-25T12:45:35.291Z,975
2017-12-25T12:46:03.645Z,955
2017-12-25T12:47:59.049Z,895
2017-12-25T12:50:39.406Z,915
2017-12-25T12:51:36.412Z,880
2017-12-25T13:00:00.628Z,745
2017-12-25T13:01:13.231Z,755
2017-12-25T13:01:41.588Z,750
2017-12-25T13:03:37.002Z,690
2017-12-25T13:04:05.357Z,680
2017-12-25T13:04:33.928Z,675
2017-12-25T13:05:32.271Z,635
2017-12-25T13:06:00.009Z,620
2017-12-25T13:06:29.195Z,605
2017-12-25T13:07:12.959Z,590
2017-12-25T13:07:40.980Z,580
2017-12-25T13:08:08.999Z,575
2017-12-25T13:09:35.127Z,585
2017-12-25T13:10:02.982Z,585
2017-12-25T13:10:46.033Z,600
2017-12-25T13:11:15.618Z,610
2017-12-25T13:11:44.342Z,615
2017-12-25T13:12:41.327Z,635
2017-12-25T13:13:10.696Z,645
2017-12-25T13:14:29.154Z,650
2017-12-25T13:14:57.937Z,650
2017-12-25T13:15:26.184Z,655
2017-12-25T13:16:10.229Z,650
2017-12-25T13:16:40.373Z,650
2017-12-25T13:17:38.250Z,675
2017-12-25T13:18:07.091Z,690
2017-12-25T13:18:34.936Z,725
2017-12-25T13:19:32.435Z,820
2017-12-25T13:20:00.875Z,885
2017-12-25T13:20:30.107Z,950
2017-12-25T13:21:00.063Z,1020
2017-12-25T13:21:28.729Z,1045
2017-12-25T13:21:56.759Z,1085
2017-12-25T13:22:25.555Z,1130
2017-12-25T13:22:54.890Z,1185
2017-12-25T13:23:38.236Z,1190
2017-12-25T13:24:08.064Z,1175
2017-12-25T13:24:37.043Z,1165
2017-12-25T13:25:24.206Z,1030
2017-12-25T13:25:52.893Z,1035
2017-12-25T13:26:23.068Z,1050
2017-12-25T13:29:59.509Z,1395
2017-12-25T13:30:27.852Z,1455
2017-12-25T13:31:26.300Z,1495
2017-12-25T13:31:56.167Z,1575
2017-12-25T13:32:24.404Z,1700
2017-12-25T13:32:53.088Z,1760
2017-12-25T13:33:21.559Z,1900
2017-12-25T13:33:49.998Z,1855
2017-12-25T13:34:19.295Z,1980
2017-12-25T13:34:47.617Z,1995
2017-12-25T13:35:15.657Z,2035
2017-12-25T13:35:44.188Z,1975
2017-12-25T13:36:12.681Z,2005
2017-12-25T13:36:47.819Z,2050
2017-12-25T13:37:16.996Z,1620
2017-12-25T13:37:45.597Z,1805
2017-12-25T13:38:28.492Z,1820
2017-12-25T13:38:57.619Z,1670
2017-12-25T13:39:42.381Z,1890
2017-12-25T13:40:55.209Z,1885
2017-12-25T13:41:23.624Z,1990
2017-12-25T13:42:07.482Z,1990
2017-12-25T13:42:36.631Z,1605
2017-12-25T13:43:05.056Z,1590
2017-12-25T13:43:48.849Z,1590
2017-12-25T13:44:17.116Z,1550
2017-12-25T13:44:45.152Z,1720
2017-12-25T13:45:28.457Z,1940
2017-12-25T13:46:11.464Z,1865
2017-12-25T13:46:40.284Z,1810
2017-12-25T13:47:09.305Z,1670
2017-12-25T13:47:38.563Z,1585
2017-12-25T13:48:07.172Z,1560
2017-12-25T13:48:37.571Z,1395
2017-12-25T13:49:35.773Z,1120
2017-12-25T13:50:04.361Z,1100
2017-12-25T13:50:38.684Z,1105
2017-12-25T13:51:07.931Z,1110
2017-12-25T13:51:35.948Z,1185
2017-12-25T13:52:03.950Z,1415
2017-12-25T13:52:31.971Z,1385
2017-12-25T13:53:00.562Z,1250
2017-12-25T13:53:28.644Z,1185
2017-12-25T13:53:57.017Z,1060
2017-12-25T13:54:27.335Z,1035
2017-12-25T13:55:10.663Z,1005
2017-12-25T13:55:39.874Z,990
2017-12-25T13:56:08.325Z,995
2017-12-25T13:57:19.853Z,1000
2017-12-25T13:57:47.583Z,1025
2017-12-25T13:58:30.884Z,1075
2017-12-25T13:58:58.726Z,1145
2017-12-25T13:59:27.746Z,1090
2017-12-25T13:59:56.576Z,1070
2017-12-25T14:00:24.587Z,1100
2017-12-25T14:01:36.975Z,1190
2017-12-25T14:03:03.119Z,1075
2017-12-25T14:03:31.663Z,1100
2017-12-25T14:03:59.576Z,1150
2017-12-25T14:05:12.381Z,1485
2017-12-25T14:05:40.328Z,1600
2017-12-25T14:06:08.363Z,1485
2017-12-25T14:06:36.818Z,1545
2017-12-25T14:07:05.576Z,1655
2017-12-25T14:07:33.507Z,1805
2017-12-25T14:08:01.962Z,1620
2017-12-25T14:09:31.760Z,1415
2017-12-25T14:09:59.712Z,1415